createdAt,value
2019-03-11T00:01:45.578Z,2.50
2019-03-11T00:04:16.459Z,2.60
2019-03-11T00:06:46.833Z,2.20
2019-03-11T00:09:16.706Z,2.33
2019-03-11T00:11:46.540Z,2.47
2019-03-11T00:14:16.435Z,2.67
2019-03-11T00:16:46.344Z,2.27
2019-03-11T00:19:17.274Z,2.17
2019-03-11T00:21:47.239Z,2.40
2019-03-11T00:24:17.188Z,3.10
2019-03-11T00:26:47.732Z,2.17
2019-03-11T00:29:18.489Z,2.57
2019-03-11T00:31:48.683Z,2.03
2019-03-11T00:34:18.923Z,2.03
2019-03-11T00:36:48.692Z,2.00
2019-03-11T00:39:18.579Z,1.70
2019-03-11T00:41:48.468Z,1.00
2019-03-11T00:44:18.347Z,1.07
2019-03-11T00:46:48.258Z,1.77
2019-03-11T00:49:18.201Z,1.30
2019-03-11T00:51:48.218Z,1.03
2019-03-11T00:54:18.161Z,1.73
2019-03-11T00:56:48.100Z,1.70
2019-03-11T00:59:18.048Z,2.23
2019-03-11T01:01:48.214Z,1.73
2019-03-11T01:04:18.105Z,1.73
2019-03-11T01:06:48.337Z,1.90
2019-03-11T01:09:18.284Z,1.53
2019-03-11T01:11:48.258Z,1.30
2019-03-11T01:14:18.196Z,1.23
2019-03-11T01:16:48.062Z,1.50
2019-03-11T01:19:18.234Z,1.20
2019-03-11T01:21:48.095Z,1.50
2019-03-11T01:24:18.032Z,1.23
2019-03-11T01:26:47.837Z,1.37
2019-03-11T01:29:17.774Z,1.10
2019-03-11T01:31:47.715Z,1.30
2019-03-11T01:34:17.480Z,1.50
2019-03-11T01:36:48.176Z,1.10
2019-03-11T01:39:18.727Z,1.23
2019-03-11T01:41:48.613Z,1.20
2019-03-11T01:44:18.867Z,1.20
2019-03-11T01:46:48.720Z,1.00
2019-03-11T01:49:18.892Z,1.10
2019-03-11T01:51:49.535Z,1.40
2019-03-11T01:54:19.751Z,1.10
2019-03-11T01:56:49.614Z,1.47
2019-03-11T01:59:19.782Z,1.00
2019-03-11T02:01:50.022Z,1.20
2019-03-11T02:04:19.850Z,1.03
2019-03-11T02:06:49.632Z,1.20
2019-03-11T02:09:19.575Z,1.27
2019-03-11T02:11:49.497Z,1.70
2019-03-11T02:14:19.661Z,1.10
2019-03-11T02:16:50.958Z,1.40
2019-03-11T02:19:20.927Z,1.47
2019-03-11T02:21:50.722Z,1.10
2019-03-11T02:24:21.179Z,1.13
2019-03-11T02:26:51.405Z,1.13
2019-03-11T02:29:21.330Z,1.37
2019-03-11T02:31:51.511Z,1.40
2019-03-11T02:34:22.073Z,1.20
2019-03-11T02:36:51.930Z,1.10
2019-03-11T02:39:21.713Z,1.77
2019-03-11T02:41:51.960Z,1.30
2019-03-11T02:44:22.154Z,1.20
2019-03-11T02:46:52.062Z,1.40
2019-03-11T02:49:21.897Z,1.97
2019-03-11T02:51:51.897Z,1.50
2019-03-11T02:54:21.742Z,1.93
2019-03-11T02:56:51.503Z,1.93
2019-03-11T02:59:21.651Z,1.50
2019-03-11T03:02:13.701Z,1.73
2019-03-11T03:04:50.673Z,1.73
2019-03-11T03:07:20.612Z,1.63
2019-03-11T03:09:50.618Z,1.73
2019-03-11T03:12:20.757Z,1.50
2019-03-11T03:14:51.761Z,1.80
2019-03-11T03:17:21.713Z,1.27
2019-03-11T03:19:51.947Z,1.73
2019-03-11T03:22:21.784Z,1.33
2019-03-11T03:24:51.730Z,2.07
2019-03-11T03:27:21.653Z,1.60
2019-03-11T03:29:51.534Z,2.03
2019-03-11T03:32:21.463Z,2.00
2019-03-11T03:34:51.531Z,2.20
2019-03-11T03:37:21.672Z,1.97
2019-03-11T03:39:53.141Z,1.73
2019-03-11T03:42:23.260Z,1.57
2019-03-11T03:45:30.386Z,1.67
2019-03-11T03:48:00.672Z,2.00
2019-03-11T03:50:33.253Z,1.77
2019-03-11T03:53:03.467Z,1.93
2019-03-11T03:55:33.368Z,1.83
2019-03-11T03:58:03.313Z,1.60
2019-03-11T04:00:33.203Z,1.43
2019-03-11T04:03:03.157Z,1.40
2019-03-11T04:05:33.080Z,1.20
2019-03-11T04:08:03.762Z,1.30
2019-03-11T04:10:33.689Z,1.67
2019-03-11T04:13:03.926Z,1.63
2019-03-11T04:15:34.845Z,1.50
2019-03-11T04:18:07.248Z,2.20
2019-03-11T04:20:37.396Z,1.80
2019-03-11T04:23:07.540Z,1.53
2019-03-11T04:25:37.864Z,1.40
2019-03-11T04:28:07.809Z,1.83
2019-03-11T04:30:37.758Z,0.97
2019-03-11T04:33:07.705Z,1.17
2019-03-11T04:35:37.919Z,1.10
2019-03-11T04:38:08.275Z,1.30
2019-03-11T04:40:38.119Z,1.13
2019-03-11T04:43:08.048Z,1.17
2019-03-11T04:45:37.908Z,1.53
2019-03-11T04:48:07.980Z,1.70
2019-03-11T04:50:37.842Z,1.53
2019-03-11T04:53:07.754Z,2.07
2019-03-11T04:55:37.695Z,2.00
2019-03-11T04:58:07.986Z,2.50
2019-03-11T05:00:37.965Z,2.50
2019-03-11T05:03:07.922Z,2.83
2019-03-11T05:05:37.849Z,2.27
2019-03-11T05:08:07.696Z,1.80
2019-03-11T05:10:37.636Z,2.80
2019-03-11T05:13:07.775Z,1.90
2019-03-11T05:15:38.359Z,2.00
2019-03-11T05:18:08.627Z,1.83
2019-03-11T05:20:39.254Z,1.50
2019-03-11T05:23:09.881Z,1.37
2019-03-11T05:25:40.008Z,1.57
2019-03-11T05:28:09.859Z,1.43
2019-03-11T05:30:41.790Z,1.50
2019-03-11T05:33:11.643Z,1.50
2019-03-11T05:35:41.529Z,1.60
2019-03-11T05:38:11.386Z,1.50
2019-03-11T05:40:41.556Z,1.47
2019-03-11T05:43:11.492Z,1.47
2019-03-11T05:45:42.419Z,1.60
2019-03-11T05:48:12.605Z,1.57
2019-03-11T05:50:42.538Z,1.77
2019-03-11T05:53:12.482Z,1.60
2019-03-11T05:55:42.509Z,2.07
2019-03-11T05:58:12.729Z,2.10
2019-03-11T06:00:43.006Z,1.80
2019-03-11T06:03:12.869Z,2.50
2019-03-11T06:05:43.088Z,2.00
2019-03-11T06:08:19.942Z,2.10
2019-03-11T06:10:49.882Z,2.67
2019-03-11T06:13:19.712Z,2.30
2019-03-11T06:15:50.072Z,2.60
2019-03-11T06:18:44.271Z,2.20
2019-03-11T06:21:28.250Z,2.80
2019-03-11T06:23:57.983Z,2.80
2019-03-11T06:26:28.940Z,1.83
2019-03-11T06:28:58.801Z,2.73
2019-03-11T06:31:28.969Z,2.30
2019-03-11T06:33:58.813Z,3.30
2019-03-11T06:36:28.675Z,3.80
2019-03-11T06:39:05.777Z,2.80
2019-03-11T06:41:32.137Z,3.40
2019-03-11T06:44:02.400Z,4.20
2019-03-11T06:46:32.456Z,4.60
2019-03-11T06:49:02.233Z,3.30
2019-03-11T06:51:32.066Z,3.27
2019-03-11T06:54:02.020Z,2.70
2019-03-11T06:56:33.040Z,2.93
2019-03-11T06:59:02.922Z,2.97
2019-03-11T07:01:32.868Z,3.67
2019-03-11T07:04:02.721Z,3.53
2019-03-11T07:06:32.648Z,2.93
2019-03-11T07:09:02.991Z,3.10
2019-03-11T07:11:34.456Z,3.70
2019-03-11T07:14:04.423Z,3.63
2019-03-11T07:16:34.722Z,3.73
2019-03-11T07:19:04.909Z,3.80
2019-03-11T07:21:34.820Z,3.70
2019-03-11T07:24:04.947Z,3.40
2019-03-11T07:26:34.817Z,3.80
2019-03-11T07:29:04.697Z,3.90
2019-03-11T07:31:34.864Z,3.33
2019-03-11T07:34:04.798Z,3.87
2019-03-11T07:36:35.082Z,3.77
2019-03-11T07:39:06.139Z,3.50
2019-03-11T07:41:36.618Z,3.53
2019-03-11T07:44:06.909Z,3.40
2019-03-11T07:46:37.124Z,3.40
2019-03-11T07:49:07.297Z,3.50
2019-03-11T07:51:37.142Z,3.23
2019-03-11T07:54:07.423Z,3.27
2019-03-11T07:56:37.365Z,3.37
2019-03-11T07:59:07.248Z,2.83
2019-03-11T08:01:37.105Z,2.40
2019-03-11T08:04:07.031Z,2.30
2019-03-11T08:06:37.204Z,1.97
2019-03-11T08:09:08.016Z,2.70
2019-03-11T08:11:39.446Z,2.63
2019-03-11T08:14:09.365Z,2.90
2019-03-11T08:16:39.212Z,2.70
2019-03-11T08:19:09.326Z,2.57
2019-03-11T08:21:39.563Z,2.60
2019-03-11T08:24:09.495Z,2.70
2019-03-11T08:26:39.344Z,2.63
2019-03-11T08:29:09.314Z,2.97
2019-03-11T08:31:39.161Z,2.60
2019-03-11T08:34:09.145Z,2.63
2019-03-11T08:36:39.379Z,2.90
2019-03-11T08:39:11.190Z,3.33
2019-03-11T08:41:42.865Z,3.33
2019-03-11T08:44:13.788Z,3.40
2019-03-11T08:46:44.719Z,3.40
2019-03-11T08:49:15.024Z,3.93
2019-03-11T08:51:44.981Z,3.63
2019-03-11T08:54:14.779Z,3.63
2019-03-11T08:56:44.714Z,3.93
2019-03-11T08:59:14.924Z,3.87
2019-03-11T09:01:44.693Z,4.17
2019-03-11T09:04:14.632Z,4.10
2019-03-11T09:06:44.566Z,4.37
2019-03-11T09:09:14.494Z,3.63
2019-03-11T09:11:44.355Z,3.80
2019-03-11T09:14:14.227Z,3.90
2019-03-11T09:16:44.077Z,4.03
2019-03-11T09:19:14.057Z,4.40
2019-03-11T09:21:44.663Z,3.97
2019-03-11T09:24:19.303Z,4.87
2019-03-11T09:26:46.268Z,5.00
2019-03-11T09:29:16.183Z,4.80
2019-03-11T09:31:46.070Z,4.57
2019-03-11T09:34:15.933Z,4.70
2019-03-11T09:36:45.720Z,4.80
2019-03-11T09:39:15.594Z,4.83
2019-03-11T09:41:45.455Z,5.80
2019-03-11T09:44:16.367Z,5.53
2019-03-11T09:46:46.218Z,5.80
2019-03-11T09:49:16.394Z,5.63
2019-03-11T09:51:46.257Z,5.93
2019-03-11T09:54:16.104Z,6.43
2019-03-11T09:56:46.058Z,6.07
2019-03-11T09:59:15.917Z,6.20
2019-03-11T10:01:45.861Z,4.60
2019-03-11T10:04:15.715Z,5.33
2019-03-11T10:06:45.657Z,5.43
2019-03-11T10:09:15.578Z,5.90
2019-03-11T10:11:45.526Z,4.90
2019-03-11T10:14:15.730Z,5.50
2019-03-11T10:16:45.578Z,5.20
2019-03-11T10:19:15.542Z,5.43
2019-03-11T10:21:45.476Z,5.70
2019-03-11T10:24:15.420Z,5.73
2019-03-11T10:26:45.328Z,5.90
2019-03-11T10:29:15.335Z,5.70
2019-03-11T10:31:45.198Z,5.00
2019-03-11T10:34:15.459Z,3.70
2019-03-11T10:36:45.385Z,3.53
2019-03-11T10:39:15.649Z,3.07
2019-03-11T10:41:45.592Z,3.77
2019-03-11T10:44:15.516Z,3.00
2019-03-11T10:46:45.404Z,2.70
2019-03-11T10:49:15.295Z,2.83
2019-03-11T10:51:45.246Z,2.50
2019-03-11T10:54:15.083Z,2.77
2019-03-11T10:56:45.107Z,2.60
2019-03-11T10:59:14.978Z,2.87
2019-03-11T11:01:44.896Z,2.67
2019-03-11T11:04:14.751Z,3.23
2019-03-11T11:06:44.711Z,3.23
2019-03-11T11:09:14.525Z,3.30
2019-03-11T11:11:44.489Z,2.60
2019-03-11T11:14:14.424Z,2.73
2019-03-11T11:16:46.353Z,2.57
2019-03-11T11:19:15.993Z,2.67
2019-03-11T11:21:45.851Z,2.87
2019-03-11T11:24:16.112Z,2.53
2019-03-11T11:26:46.040Z,3.17
2019-03-11T11:29:16.226Z,3.00
2019-03-11T11:31:46.104Z,3.30
2019-03-11T11:34:16.037Z,3.43
2019-03-11T11:36:45.954Z,3.20
2019-03-11T11:39:17.107Z,3.03
2019-03-11T11:41:48.279Z,3.07
2019-03-11T11:44:18.121Z,2.70
2019-03-11T11:46:47.981Z,3.00
2019-03-11T11:49:17.944Z,3.43
2019-03-11T11:51:47.892Z,3.43
2019-03-11T11:54:17.851Z,2.80
2019-03-11T11:56:47.828Z,3.70
2019-03-11T11:59:17.685Z,3.10
2019-03-11T12:02:02.934Z,2.30
2019-03-11T12:04:24.341Z,2.80
2019-03-11T12:06:54.264Z,2.60
2019-03-11T12:09:24.185Z,2.50
2019-03-11T12:11:54.401Z,2.80
2019-03-11T12:14:25.241Z,2.70
2019-03-11T12:16:55.084Z,2.53
2019-03-11T12:19:24.947Z,2.30
2019-03-11T12:21:54.910Z,1.90
2019-03-11T12:24:24.872Z,1.97
2019-03-11T12:26:54.701Z,1.97
2019-03-11T12:29:24.628Z,2.07
2019-03-11T12:31:54.845Z,1.97
2019-03-11T12:34:26.038Z,2.00
2019-03-11T12:36:55.913Z,1.97
2019-03-11T12:39:25.744Z,1.73
2019-03-11T12:41:55.661Z,2.20
2019-03-11T12:44:25.608Z,1.90
2019-03-11T12:46:55.548Z,1.83
2019-03-11T12:49:25.578Z,1.90
2019-03-11T12:51:55.522Z,2.10
2019-03-11T12:54:25.297Z,2.50
2019-03-11T12:56:55.467Z,1.83
2019-03-11T12:59:25.274Z,2.23
2019-03-11T13:01:55.123Z,1.63
2019-03-11T13:04:25.241Z,1.90
2019-03-11T13:06:55.391Z,1.77
2019-03-11T13:09:25.359Z,1.90
2019-03-11T13:11:55.211Z,1.67
2019-03-11T13:14:25.075Z,1.90
2019-03-11T13:16:56.011Z,1.80
2019-03-11T13:19:25.981Z,1.77
2019-03-11T13:21:55.835Z,1.43
2019-03-11T13:24:26.057Z,2.50
2019-03-11T13:26:55.949Z,2.30
2019-03-11T13:29:25.902Z,1.77
2019-03-11T13:31:55.856Z,1.70
2019-03-11T13:34:25.698Z,1.73
2019-03-11T13:36:55.654Z,1.70
2019-03-11T13:39:25.493Z,1.43
2019-03-11T13:41:56.031Z,1.60
2019-03-11T13:44:25.819Z,1.90
2019-03-11T13:46:55.857Z,1.70
2019-03-11T13:49:25.697Z,1.93
2019-03-11T13:51:55.905Z,1.60
2019-03-11T13:54:25.933Z,1.43
2019-03-11T13:56:55.854Z,1.50
2019-03-11T13:59:25.815Z,1.53
2019-03-11T14:01:55.667Z,1.70
2019-03-11T14:04:25.801Z,1.77
2019-03-11T14:06:55.713Z,1.50
2019-03-11T14:09:25.637Z,1.40
2019-03-11T14:11:55.558Z,1.33
2019-03-11T14:14:25.394Z,1.43
2019-03-11T14:16:55.311Z,1.40
2019-03-11T14:19:25.251Z,1.07
2019-03-11T14:21:55.421Z,1.93
2019-03-11T14:24:25.885Z,2.33
2019-03-11T14:26:55.738Z,1.83
2019-03-11T14:29:25.717Z,2.00
2019-03-11T14:31:55.639Z,1.40
2019-03-11T14:34:25.528Z,1.87
2019-03-11T14:36:55.402Z,1.70
2019-03-11T14:39:25.205Z,2.00
2019-03-11T14:41:55.073Z,2.10
2019-03-11T14:44:25.061Z,1.40
2019-03-11T14:46:55.380Z,1.70
2019-03-11T14:49:25.289Z,1.80
2019-03-11T14:51:55.229Z,1.83
2019-03-11T14:54:25.096Z,1.73
2019-03-11T14:56:55.087Z,2.80
2019-03-11T14:59:25.322Z,1.60
2019-03-11T15:01:55.313Z,2.03
2019-03-11T15:04:25.568Z,1.57
2019-03-11T15:06:56.487Z,1.70
2019-03-11T15:09:26.439Z,1.83
2019-03-11T15:11:56.253Z,2.10
2019-03-11T15:14:26.230Z,1.83
2019-03-11T15:16:56.114Z,1.40
2019-03-11T15:19:25.962Z,2.07
2019-03-11T15:21:56.195Z,1.80
2019-03-11T15:24:26.172Z,1.67
2019-03-11T15:26:56.073Z,1.60
2019-03-11T15:29:27.542Z,1.93
2019-03-11T15:31:57.850Z,2.00
2019-03-11T15:34:28.130Z,2.23
2019-03-11T15:36:58.343Z,2.17
2019-03-11T15:39:28.298Z,1.90
2019-03-11T15:41:58.195Z,1.70
2019-03-11T15:44:28.045Z,1.93
2019-03-11T15:46:57.915Z,1.60
2019-03-11T15:49:27.864Z,2.40
2019-03-11T15:51:59.712Z,1.93
2019-03-11T15:54:48.793Z,1.80
2019-03-11T15:57:18.969Z,2.00
2019-03-11T15:59:49.280Z,1.60
2019-03-11T16:02:19.857Z,1.53
2019-03-11T16:04:50.034Z,1.90
2019-03-11T16:07:20.161Z,2.07
2019-03-11T16:09:50.319Z,1.50
2019-03-11T16:12:20.291Z,1.70
2019-03-11T16:14:50.405Z,1.70
2019-03-11T16:17:20.337Z,2.10
2019-03-11T16:19:50.307Z,1.90
2019-03-11T16:22:24.283Z,2.00
2019-03-11T16:24:52.069Z,1.53
2019-03-11T16:27:22.005Z,1.90
2019-03-11T16:29:52.232Z,1.93
2019-03-11T16:32:22.202Z,1.80
2019-03-11T16:34:52.089Z,1.77
2019-03-11T16:37:22.011Z,1.40
2019-03-11T16:39:51.887Z,1.80
2019-03-11T16:42:22.121Z,1.57
2019-03-11T16:44:52.047Z,2.17
2019-03-11T16:47:22.158Z,1.73
2019-03-11T16:49:52.075Z,1.80
2019-03-11T16:52:22.023Z,1.80
2019-03-11T16:54:51.921Z,1.87
2019-03-11T16:57:21.853Z,1.33
2019-03-11T16:59:51.782Z,1.70
2019-03-11T17:02:21.717Z,1.53
2019-03-11T17:04:51.732Z,1.80
2019-03-11T17:07:21.870Z,1.60
2019-03-11T17:09:52.195Z,2.70
2019-03-11T17:12:22.129Z,1.73
2019-03-11T17:14:52.338Z,2.20
2019-03-11T17:17:22.206Z,1.80
2019-03-11T17:19:51.996Z,1.83
2019-03-11T17:22:22.086Z,2.43
2019-03-11T17:24:53.294Z,2.03
2019-03-11T17:27:23.191Z,1.87
2019-03-11T17:29:53.520Z,2.30
2019-03-11T17:32:23.386Z,1.67
2019-03-11T17:34:53.316Z,1.73
2019-03-11T17:37:23.576Z,1.90
2019-03-11T17:39:53.874Z,2.30
2019-03-11T17:42:24.171Z,2.00
2019-03-11T17:44:54.507Z,1.83
2019-03-11T17:47:24.279Z,2.37
2019-03-11T17:49:54.254Z,2.03
2019-03-11T17:52:24.297Z,2.33
2019-03-11T17:54:54.241Z,2.10
2019-03-11T17:57:24.177Z,2.10
2019-03-11T17:59:54.288Z,2.00
2019-03-11T18:02:24.320Z,2.10
2019-03-11T18:04:54.633Z,1.90
2019-03-11T18:07:24.742Z,3.00
2019-03-11T18:09:54.557Z,2.20
2019-03-11T18:12:24.509Z,2.00
2019-03-11T18:14:54.273Z,1.70
2019-03-11T18:17:24.201Z,2.20
2019-03-11T18:19:54.136Z,2.33
2019-03-11T18:22:24.346Z,1.73
2019-03-11T18:24:54.334Z,1.90
2019-03-11T18:27:24.256Z,2.03
2019-03-11T18:29:54.427Z,2.03
2019-03-11T18:32:24.529Z,2.50
2019-03-11T18:34:54.369Z,1.90
2019-03-11T18:37:24.364Z,2.17
2019-03-11T18:39:54.330Z,2.20
2019-03-11T18:42:26.223Z,3.07
2019-03-11T18:44:56.910Z,2.43
2019-03-11T18:47:26.866Z,2.03
2019-03-11T18:49:56.793Z,1.83
2019-03-11T18:52:27.236Z,2.20
2019-03-11T18:54:57.105Z,1.97
2019-03-11T18:57:27.039Z,2.37
2019-03-11T18:59:57.336Z,2.20
2019-03-11T19:02:27.365Z,2.70
2019-03-11T19:04:57.332Z,2.10
2019-03-11T19:07:27.219Z,1.93
2019-03-11T19:09:57.194Z,2.53
2019-03-11T19:12:27.141Z,2.47
2019-03-11T19:14:56.956Z,1.67
2019-03-11T19:17:27.179Z,2.33
2019-03-11T19:19:59.762Z,2.23
2019-03-11T19:22:28.644Z,2.23
2019-03-11T19:24:58.627Z,2.30
2019-03-11T19:27:28.555Z,1.90
2019-03-11T19:29:58.913Z,1.80
2019-03-11T19:32:28.841Z,1.93
2019-03-11T19:34:58.730Z,1.80
2019-03-11T19:37:28.660Z,2.17
2019-03-11T19:39:58.900Z,3.03
2019-03-11T19:42:29.144Z,1.53
2019-03-11T19:44:58.987Z,2.00
2019-03-11T19:47:28.849Z,1.87
2019-03-11T19:50:00.285Z,1.87
2019-03-11T19:52:30.336Z,2.27
2019-03-11T19:55:00.342Z,2.20
2019-03-11T19:57:31.320Z,1.87
2019-03-11T20:00:01.182Z,1.60
2019-03-11T20:02:32.909Z,2.00
2019-03-11T20:05:03.053Z,1.70
2019-03-11T20:07:34.802Z,1.97
2019-03-11T20:10:05.261Z,2.23
2019-03-11T20:12:35.155Z,2.00
2019-03-11T20:15:05.578Z,2.03
2019-03-11T20:17:37.038Z,2.07
2019-03-11T20:20:09.535Z,2.27
2019-03-11T20:22:39.719Z,2.03
2019-03-11T20:25:12.727Z,1.67
2019-03-11T20:27:43.027Z,2.10
2019-03-11T20:30:16.175Z,2.53
2019-03-11T20:32:46.580Z,2.10
2019-03-11T20:35:17.884Z,1.70
2019-03-11T20:37:49.058Z,1.90
2019-03-11T20:40:19.228Z,2.10
2019-03-11T20:42:49.331Z,1.90
2019-03-11T20:45:19.720Z,1.80
2019-03-11T20:47:49.908Z,2.27
2019-03-11T20:50:19.913Z,1.90
2019-03-11T20:52:49.993Z,2.37
2019-03-11T20:55:19.928Z,2.20
2019-03-11T20:57:49.831Z,2.90
2019-03-11T21:00:20.441Z,1.97
2019-03-11T21:02:50.433Z,1.90
2019-03-11T21:05:23.196Z,2.00
2019-03-11T21:07:53.446Z,2.20
2019-03-11T21:10:23.639Z,2.40
2019-03-11T21:12:53.670Z,2.10
2019-03-11T21:15:23.591Z,2.20
2019-03-11T21:17:53.542Z,1.93
2019-03-11T21:20:23.850Z,1.90
2019-03-11T21:22:54.010Z,1.57
2019-03-11T21:25:24.297Z,2.10
2019-03-11T21:27:54.853Z,2.47
2019-03-11T21:30:26.193Z,1.97
2019-03-11T21:32:56.313Z,2.30
2019-03-11T21:35:26.510Z,2.27
2019-03-11T21:37:56.512Z,2.37
2019-03-11T21:40:26.707Z,2.10
2019-03-11T21:42:56.660Z,2.00
2019-03-11T21:45:34.011Z,2.10
2019-03-11T21:47:58.111Z,2.13
2019-03-11T21:50:28.158Z,1.93
2019-03-11T21:52:58.059Z,2.90
2019-03-11T21:55:27.956Z,2.37
2019-03-11T21:57:57.895Z,2.67
2019-03-11T22:00:34.249Z,2.43
2019-03-11T22:02:59.442Z,1.90
2019-03-11T22:05:29.403Z,1.80
2019-03-11T22:07:59.192Z,2.47
2019-03-11T22:10:30.112Z,2.17
2019-03-11T22:12:59.981Z,2.60
2019-03-11T22:15:29.817Z,2.17
2019-03-11T22:17:59.771Z,2.30
2019-03-11T22:20:29.934Z,2.20
2019-03-11T22:22:59.775Z,2.60
2019-03-11T22:25:30.019Z,2.53
2019-03-11T22:28:00.005Z,2.57
2019-03-11T22:30:29.909Z,2.03
2019-03-11T22:32:59.828Z,2.13
2019-03-11T22:35:29.725Z,2.50
2019-03-11T22:38:00.430Z,2.10
2019-03-11T22:40:30.572Z,3.77
2019-03-11T22:43:00.463Z,2.50
2019-03-11T22:45:30.365Z,2.10
2019-03-11T22:48:00.265Z,2.27
2019-03-11T22:50:30.180Z,2.53
2019-03-11T22:53:00.399Z,2.27
2019-03-11T22:55:30.335Z,3.17
2019-03-11T22:58:01.306Z,2.13
2019-03-11T23:00:52.323Z,2.10
2019-03-11T23:03:24.959Z,2.83
2019-03-11T23:05:57.912Z,2.57
2019-03-11T23:08:28.399Z,4.00
2019-03-11T23:10:58.649Z,2.30
2019-03-11T23:13:28.568Z,3.07
2019-03-11T23:15:58.413Z,2.93
2019-03-11T23:18:28.577Z,2.30
2019-03-11T23:20:58.513Z,3.80
2019-03-11T23:23:28.392Z,2.93
2019-03-11T23:25:58.350Z,2.83
2019-03-11T23:28:28.305Z,3.20
2019-03-11T23:30:58.236Z,2.90
2019-03-11T23:33:28.163Z,3.23
2019-03-11T23:35:58.176Z,3.93
2019-03-11T23:38:28.295Z,3.77
2019-03-11T23:40:58.220Z,2.90
2019-03-11T23:43:28.179Z,3.00
2019-03-11T23:45:58.087Z,2.77
2019-03-11T23:48:27.885Z,2.80
2019-03-11T23:50:57.980Z,3.10
2019-03-11T23:53:27.827Z,3.20
2019-03-11T23:55:57.761Z,3.00
2019-03-11T23:58:28.320Z,3.07
